sensor_id;sensor_type;location;lat;lon;timestamp;P1;durP1;ratioP1;P2;durP2;ratioP2
41468;SDS011;27206;47.032;15.484;2023-02-11T00:01:12;3.33;;;2.95;;
41468;SDS011;27206;47.032;15.484;2023-02-11T00:03:57;6.40;;;2.80;;
41468;SDS011;27206;47.032;15.484;2023-02-11T00:06:25;2.67;;;1.90;;
41468;SDS011;27206;47.032;15.484;2023-02-11T00:08:52;7.68;;;3.13;;
41468;SDS011;27206;47.032;15.484;2023-02-11T00:11:19;5.20;;;3.97;;
41468;SDS011;27206;47.032;15.484;2023-02-11T00:13:46;2.13;;;1.58;;
41468;SDS011;27206;47.032;15.484;2023-02-11T00:16:13;2.50;;;2.30;;
41468;SDS011;27206;47.032;15.484;2023-02-11T00:18:41;5.32;;;2.13;;
41468;SDS011;27206;47.032;15.484;2023-02-11T00:23:37;2.33;;;2.15;;
41468;SDS011;27206;47.032;15.484;2023-02-11T00:26:03;7.97;;;3.38;;
41468;SDS011;27206;47.032;15.484;2023-02-11T00:28:35;3.22;;;2.92;;
41468;SDS011;27206;47.032;15.484;2023-02-11T00:31:01;4.68;;;2.17;;
41468;SDS011;27206;47.032;15.484;2023-02-11T00:33:27;2.97;;;2.38;;
41468;SDS011;27206;47.032;15.484;2023-02-11T00:35:52;2.95;;;2.33;;
41468;SDS011;27206;47.032;15.484;2023-02-11T00:38:18;5.70;;;2.63;;
41468;SDS011;27206;47.032;15.484;2023-02-11T00:40:43;2.05;;;1.92;;
41468;SDS011;27206;47.032;15.484;2023-02-11T00:43:09;5.85;;;2.78;;
41468;SDS011;27206;47.032;15.484;2023-02-11T00:45:35;4.07;;;2.33;;
41468;SDS011;27206;47.032;15.484;2023-02-11T00:48:00;3.00;;;2.67;;
41468;SDS011;27206;47.032;15.484;2023-02-11T00:50:26;5.15;;;2.72;;
41468;SDS011;27206;47.032;15.484;2023-02-11T00:52:52;3.88;;;2.85;;
41468;SDS011;27206;47.032;15.484;2023-02-11T00:55:17;4.15;;;3.05;;
41468;SDS011;27206;47.032;15.484;2023-02-11T00:57:43;3.30;;;2.65;;
41468;SDS011;27206;47.032;15.484;2023-02-11T01:00:10;6.45;;;2.88;;
41468;SDS011;27206;47.032;15.484;2023-02-11T01:02:37;2.63;;;2.20;;
41468;SDS011;27206;47.032;15.484;2023-02-11T01:05:03;4.15;;;3.03;;
41468;SDS011;27206;47.032;15.484;2023-02-11T01:07:29;4.32;;;2.72;;
41468;SDS011;27206;47.032;15.484;2023-02-11T01:09:55;5.00;;;2.05;;
41468;SDS011;27206;47.032;15.484;2023-02-11T01:12:21;6.50;;;4.03;;
41468;SDS011;27206;47.032;15.484;2023-02-11T01:14:47;2.90;;;2.58;;
41468;SDS011;27206;47.032;15.484;2023-02-11T01:17:13;6.13;;;2.97;;
41468;SDS011;27206;47.032;15.484;2023-02-11T01:19:39;2.20;;;2.10;;
41468;SDS011;27206;47.032;15.484;2023-02-11T01:22:05;4.32;;;2.97;;
41468;SDS011;27206;47.032;15.484;2023-02-11T01:24:31;6.18;;;2.72;;
41468;SDS011;27206;47.032;15.484;2023-02-11T01:26:56;4.13;;;2.78;;
41468;SDS011;27206;47.032;15.484;2023-02-11T01:29:22;4.13;;;2.45;;
41468;SDS011;27206;47.032;15.484;2023-02-11T01:31:48;3.83;;;2.90;;
41468;SDS011;27206;47.032;15.484;2023-02-11T01:34:14;5.03;;;2.30;;
41468;SDS011;27206;47.032;15.484;2023-02-11T01:36:40;2.63;;;2.25;;
41468;SDS011;27206;47.032;15.484;2023-02-11T01:39:05;2.50;;;2.30;;
41468;SDS011;27206;47.032;15.484;2023-02-11T01:41:32;4.43;;;3.15;;
41468;SDS011;27206;47.032;15.484;2023-02-11T01:44:20;3.35;;;2.35;;
41468;SDS011;27206;47.032;15.484;2023-02-11T01:46:53;3.47;;;2.50;;
41468;SDS011;27206;47.032;15.484;2023-02-11T01:49:26;5.05;;;3.08;;
41468;SDS011;27206;47.032;15.484;2023-02-11T01:51:59;3.72;;;2.47;;
41468;SDS011;27206;47.032;15.484;2023-02-11T01:54:27;7.43;;;2.63;;
41468;SDS011;27206;47.032;15.484;2023-02-11T01:57:16;3.95;;;2.40;;
41468;SDS011;27206;47.032;15.484;2023-02-11T02:02:28;3.15;;;2.85;;
41468;SDS011;27206;47.032;15.484;2023-02-11T02:05:13;2.95;;;2.55;;
41468;SDS011;27206;47.032;15.484;2023-02-11T02:07:45;4.50;;;2.70;;
41468;SDS011;27206;47.032;15.484;2023-02-11T02:10:14;3.97;;;2.92;;
41468;SDS011;27206;47.032;15.484;2023-02-11T02:12:44;5.00;;;2.97;;
41468;SDS011;27206;47.032;15.484;2023-02-11T02:15:20;3.70;;;2.47;;
41468;SDS011;27206;47.032;15.484;2023-02-11T02:34:50;2.85;;;2.20;;
41468;SDS011;27206;47.032;15.484;2023-02-11T02:39:57;5.00;;;3.45;;
41468;SDS011;27206;47.032;15.484;2023-02-11T02:42:26;3.55;;;1.90;;
41468;SDS011;27206;47.032;15.484;2023-02-11T02:44:52;2.47;;;2.25;;
41468;SDS011;27206;47.032;15.484;2023-02-11T02:47:19;5.68;;;3.05;;
41468;SDS011;27206;47.032;15.484;2023-02-11T02:49:45;2.70;;;2.28;;
41468;SDS011;27206;47.032;15.484;2023-02-11T03:03:01;2.83;;;2.50;;
41468;SDS011;27206;47.032;15.484;2023-02-11T03:05:58;3.92;;;2.95;;
41468;SDS011;27206;47.032;15.484;2023-02-11T03:08:58;6.05;;;3.22;;
41468;SDS011;27206;47.032;15.484;2023-02-11T03:11:31;2.58;;;2.38;;
41468;SDS011;27206;47.032;15.484;2023-02-11T03:14:00;2.67;;;2.47;;
41468;SDS011;27206;47.032;15.484;2023-02-11T03:16:28;2.15;;;1.70;;
41468;SDS011;27206;47.032;15.484;2023-02-11T03:19:02;2.58;;;2.38;;
41468;SDS011;27206;47.032;15.484;2023-02-11T03:21:34;2.13;;;1.92;;
41468;SDS011;27206;47.032;15.484;2023-02-11T03:24:05;2.97;;;2.22;;
41468;SDS011;27206;47.032;15.484;2023-02-11T03:26:52;3.28;;;1.77;;
41468;SDS011;27206;47.032;15.484;2023-02-11T03:32:10;4.80;;;2.50;;
41468;SDS011;27206;47.032;15.484;2023-02-11T03:34:59;4.25;;;1.92;;
41468;SDS011;27206;47.032;15.484;2023-02-11T03:37:43;3.20;;;2.90;;
41468;SDS011;27206;47.032;15.484;2023-02-11T03:40:24;4.90;;;2.45;;
41468;SDS011;27206;47.032;15.484;2023-02-11T03:43:06;3.03;;;2.33;;
41468;SDS011;27206;47.032;15.484;2023-02-11T03:45:33;2.42;;;2.22;;
41468;SDS011;27206;47.032;15.484;2023-02-11T03:48:10;7.63;;;2.80;;
41468;SDS011;27206;47.032;15.484;2023-02-11T03:50:39;1.90;;;1.80;;
41468;SDS011;27206;47.032;15.484;2023-02-11T03:53:06;5.93;;;2.47;;
41468;SDS011;27206;47.032;15.484;2023-02-11T03:55:35;2.25;;;2.05;;
41468;SDS011;27206;47.032;15.484;2023-02-11T03:58:03;3.70;;;3.03;;
41468;SDS011;27206;47.032;15.484;2023-02-11T04:00:30;2.55;;;2.35;;
41468;SDS011;27206;47.032;15.484;2023-02-11T04:02:57;2.72;;;2.53;;
41468;SDS011;27206;47.032;15.484;2023-02-11T04:05:23;3.83;;;2.63;;
41468;SDS011;27206;47.032;15.484;2023-02-11T04:07:48;3.15;;;2.13;;
41468;SDS011;27206;47.032;15.484;2023-02-11T04:10:14;2.70;;;2.45;;
41468;SDS011;27206;47.032;15.484;2023-02-11T04:12:40;4.53;;;2.63;;
41468;SDS011;27206;47.032;15.484;2023-02-11T04:15:05;2.65;;;1.90;;
41468;SDS011;27206;47.032;15.484;2023-02-11T04:17:31;2.95;;;2.70;;
41468;SDS011;27206;47.032;15.484;2023-02-11T04:19:57;4.05;;;2.17;;
41468;SDS011;27206;47.032;15.484;2023-02-11T04:22:23;2.25;;;2.05;;
41468;SDS011;27206;47.032;15.484;2023-02-11T04:24:48;2.03;;;1.83;;
41468;SDS011;27206;47.032;15.484;2023-02-11T04:27:14;3.35;;;2.88;;
41468;SDS011;27206;47.032;15.484;2023-02-11T04:29:40;3.25;;;2.78;;
41468;SDS011;27206;47.032;15.484;2023-02-11T04:32:05;3.55;;;2.53;;
41468;SDS011;27206;47.032;15.484;2023-02-11T04:34:31;5.00;;;3.53;;
41468;SDS011;27206;47.032;15.484;2023-02-11T04:36:57;6.55;;;3.28;;
41468;SDS011;27206;47.032;15.484;2023-02-11T04:39:23;2.38;;;2.15;;
41468;SDS011;27206;47.032;15.484;2023-02-11T04:41:48;2.50;;;2.30;;
41468;SDS011;27206;47.032;15.484;2023-02-11T04:44:14;3.58;;;2.95;;
41468;SDS011;27206;47.032;15.484;2023-02-11T04:46:40;3.10;;;2.50;;
41468;SDS011;27206;47.032;15.484;2023-02-11T04:49:05;4.47;;;2.53;;
41468;SDS011;27206;47.032;15.484;2023-02-11T04:51:31;2.05;;;1.95;;
41468;SDS011;27206;47.032;15.484;2023-02-11T04:53:56;2.50;;;1.60;;
41468;SDS011;27206;47.032;15.484;2023-02-11T04:56:22;3.08;;;1.58;;
41468;SDS011;27206;47.032;15.484;2023-02-11T04:58:48;2.47;;;1.90;;
41468;SDS011;27206;47.032;15.484;2023-02-11T05:01:14;3.40;;;2.85;;
41468;SDS011;27206;47.032;15.484;2023-02-11T05:03:40;1.80;;;1.63;;
41468;SDS011;27206;47.032;15.484;2023-02-11T05:06:06;1.73;;;1.63;;
41468;SDS011;27206;47.032;15.484;2023-02-11T05:08:33;2.05;;;1.85;;
41468;SDS011;27206;47.032;15.484;2023-02-11T05:10:59;2.00;;;1.85;;
41468;SDS011;27206;47.032;15.484;2023-02-11T05:13:26;2.20;;;2.00;;
41468;SDS011;27206;47.032;15.484;2023-02-11T05:15:52;3.42;;;2.63;;
41468;SDS011;27206;47.032;15.484;2023-02-11T05:18:18;3.53;;;1.58;;
41468;SDS011;27206;47.032;15.484;2023-02-11T05:20:43;2.35;;;2.10;;
41468;SDS011;27206;47.032;15.484;2023-02-11T05:23:09;2.88;;;2.40;;
41468;SDS011;27206;47.032;15.484;2023-02-11T05:25:35;3.83;;;2.13;;
41468;SDS011;27206;47.032;15.484;2023-02-11T05:28:01;3.70;;;2.03;;
41468;SDS011;27206;47.032;15.484;2023-02-11T05:30:27;2.70;;;2.00;;
41468;SDS011;27206;47.032;15.484;2023-02-11T05:32:53;3.22;;;2.58;;
41468;SDS011;27206;47.032;15.484;2023-02-11T05:35:19;2.53;;;2.25;;
41468;SDS011;27206;47.032;15.484;2023-02-11T05:37:44;2.17;;;1.52;;
41468;SDS011;27206;47.032;15.484;2023-02-11T05:40:10;2.78;;;1.85;;
41468;SDS011;27206;47.032;15.484;2023-02-11T05:42:36;1.65;;;1.52;;
41468;SDS011;27206;47.032;15.484;2023-02-11T05:45:02;1.80;;;1.45;;
41468;SDS011;27206;47.032;15.484;2023-02-11T05:47:28;3.92;;;1.83;;
41468;SDS011;27206;47.032;15.484;2023-02-11T05:49:53;3.30;;;1.40;;
41468;SDS011;27206;47.032;15.484;2023-02-11T05:52:20;3.05;;;2.50;;
41468;SDS011;27206;47.032;15.484;2023-02-11T05:54:46;2.58;;;1.95;;
41468;SDS011;27206;47.032;15.484;2023-02-11T05:57:12;2.63;;;1.75;;
41468;SDS011;27206;47.032;15.484;2023-02-11T05:59:38;3.88;;;2.58;;
41468;SDS011;27206;47.032;15.484;2023-02-11T06:02:04;2.33;;;2.13;;
41468;SDS011;27206;47.032;15.484;2023-02-11T06:04:31;1.58;;;1.48;;
41468;SDS011;27206;47.032;15.484;2023-02-11T06:06:57;2.00;;;1.90;;
41468;SDS011;27206;47.032;15.484;2023-02-11T06:09:26;2.42;;;2.22;;
41468;SDS011;27206;47.032;15.484;2023-02-11T06:11:52;2.78;;;2.13;;
41468;SDS011;27206;47.032;15.484;2023-02-11T06:14:18;2.58;;;1.85;;
41468;SDS011;27206;47.032;15.484;2023-02-11T06:16:44;4.43;;;2.83;;
41468;SDS011;27206;47.032;15.484;2023-02-11T06:19:10;2.88;;;2.50;;
41468;SDS011;27206;47.032;15.484;2023-02-11T06:21:36;3.15;;;2.10;;
41468;SDS011;27206;47.032;15.484;2023-02-11T06:24:02;5.18;;;2.33;;
41468;SDS011;27206;47.032;15.484;2023-02-11T06:26:28;2.22;;;2.03;;
41468;SDS011;27206;47.032;15.484;2023-02-11T06:28:54;1.90;;;1.80;;
41468;SDS011;27206;47.032;15.484;2023-02-11T06:31:21;2.72;;;1.55;;
41468;SDS011;27206;47.032;15.484;2023-02-11T06:33:46;1.38;;;1.15;;
41468;SDS011;27206;47.032;15.484;2023-02-11T06:36:15;2.88;;;2.60;;
41468;SDS011;27206;47.032;15.484;2023-02-11T06:38:45;4.18;;;1.52;;
41468;SDS011;27206;47.032;15.484;2023-02-11T06:41:12;2.10;;;1.60;;
41468;SDS011;27206;47.032;15.484;2023-02-11T06:43:39;2.78;;;1.48;;
41468;SDS011;27206;47.032;15.484;2023-02-11T06:46:05;6.22;;;2.72;;
41468;SDS011;27206;47.032;15.484;2023-02-11T06:48:32;4.55;;;3.33;;
41468;SDS011;27206;47.032;15.484;2023-02-11T06:51:02;2.63;;;1.90;;
41468;SDS011;27206;47.032;15.484;2023-02-11T06:53:29;12.30;;;3.28;;
41468;SDS011;27206;47.032;15.484;2023-02-11T06:56:03;3.13;;;2.47;;
41468;SDS011;27206;47.032;15.484;2023-02-11T06:58:30;4.25;;;2.63;;
41468;SDS011;27206;47.032;15.484;2023-02-11T07:00:56;2.88;;;2.45;;
41468;SDS011;27206;47.032;15.484;2023-02-11T07:03:22;6.15;;;2.70;;
41468;SDS011;27206;47.032;15.484;2023-02-11T07:05:48;7.05;;;2.78;;
41468;SDS011;27206;47.032;15.484;2023-02-11T07:08:13;2.90;;;1.67;;
41468;SDS011;27206;47.032;15.484;2023-02-11T07:10:39;3.65;;;2.65;;
41468;SDS011;27206;47.032;15.484;2023-02-11T07:13:05;4.53;;;3.13;;
41468;SDS011;27206;47.032;15.484;2023-02-11T07:15:31;2.97;;;2.67;;
41468;SDS011;27206;47.032;15.484;2023-02-11T07:17:57;5.95;;;2.85;;
41468;SDS011;27206;47.032;15.484;2023-02-11T07:20:23;3.83;;;2.50;;
41468;SDS011;27206;47.032;15.484;2023-02-11T07:22:49;4.40;;;3.72;;
41468;SDS011;27206;47.032;15.484;2023-02-11T07:25:15;7.97;;;3.83;;
41468;SDS011;27206;47.032;15.484;2023-02-11T07:27:40;6.90;;;2.17;;
41468;SDS011;27206;47.032;15.484;2023-02-11T07:30:06;6.70;;;2.55;;
41468;SDS011;27206;47.032;15.484;2023-02-11T07:32:32;2.60;;;1.58;;
41468;SDS011;27206;47.032;15.484;2023-02-11T07:34:58;2.92;;;2.30;;
41468;SDS011;27206;47.032;15.484;2023-02-11T07:37:24;4.97;;;3.03;;
41468;SDS011;27206;47.032;15.484;2023-02-11T07:39:49;3.45;;;2.40;;
41468;SDS011;27206;47.032;15.484;2023-02-11T07:42:15;2.88;;;1.98;;
41468;SDS011;27206;47.032;15.484;2023-02-11T07:44:41;1.95;;;1.80;;
41468;SDS011;27206;47.032;15.484;2023-02-11T07:47:06;5.32;;;2.58;;
41468;SDS011;27206;47.032;15.484;2023-02-11T07:49:32;2.65;;;2.42;;
41468;SDS011;27206;47.032;15.484;2023-02-11T07:51:57;3.38;;;2.88;;
41468;SDS011;27206;47.032;15.484;2023-02-11T07:54:23;2.30;;;1.98;;
41468;SDS011;27206;47.032;15.484;2023-02-11T07:56:49;3.63;;;2.88;;
41468;SDS011;27206;47.032;15.484;2023-02-11T07:59:14;5.30;;;3.80;;
41468;SDS011;27206;47.032;15.484;2023-02-11T08:01:40;5.93;;;2.47;;
41468;SDS011;27206;47.032;15.484;2023-02-11T08:04:06;3.00;;;2.38;;
41468;SDS011;27206;47.032;15.484;2023-02-11T08:06:32;3.42;;;2.55;;
41468;SDS011;27206;47.032;15.484;2023-02-11T08:09:03;2.55;;;2.05;;
41468;SDS011;27206;47.032;15.484;2023-02-11T08:11:30;6.40;;;3.45;;
41468;SDS011;27206;47.032;15.484;2023-02-11T08:13:56;2.90;;;2.60;;
41468;SDS011;27206;47.032;15.484;2023-02-11T08:16:29;4.22;;;2.78;;
41468;SDS011;27206;47.032;15.484;2023-02-11T08:18:58;4.72;;;3.15;;
41468;SDS011;27206;47.032;15.484;2023-02-11T08:21:26;3.97;;;3.25;;
41468;SDS011;27206;47.032;15.484;2023-02-11T08:23:52;8.32;;;3.65;;
41468;SDS011;27206;47.032;15.484;2023-02-11T08:26:19;7.00;;;3.03;;
41468;SDS011;27206;47.032;15.484;2023-02-11T08:28:47;7.00;;;3.90;;
41468;SDS011;27206;47.032;15.484;2023-02-11T08:31:15;6.60;;;2.83;;
41468;SDS011;27206;47.032;15.484;2023-02-11T08:33:43;8.10;;;3.40;;
41468;SDS011;27206;47.032;15.484;2023-02-11T08:36:13;10.30;;;4.10;;
41468;SDS011;27206;47.032;15.484;2023-02-11T08:38:40;8.05;;;5.22;;
41468;SDS011;27206;47.032;15.484;2023-02-11T08:41:07;5.82;;;3.20;;
41468;SDS011;27206;47.032;15.484;2023-02-11T08:43:33;10.18;;;4.65;;
41468;SDS011;27206;47.032;15.484;2023-02-11T08:45:59;5.80;;;3.58;;
41468;SDS011;27206;47.032;15.484;2023-02-11T08:48:26;6.63;;;2.97;;
41468;SDS011;27206;47.032;15.484;2023-02-11T08:50:53;8.32;;;4.63;;
41468;SDS011;27206;47.032;15.484;2023-02-11T08:53:19;22.58;;;4.90;;
41468;SDS011;27206;47.032;15.484;2023-02-11T08:55:51;4.38;;;3.33;;
41468;SDS011;27206;47.032;15.484;2023-02-11T08:58:19;8.73;;;3.47;;
41468;SDS011;27206;47.032;15.484;2023-02-11T09:00:46;6.72;;;3.90;;
41468;SDS011;27206;47.032;15.484;2023-02-11T09:03:12;5.63;;;2.88;;
41468;SDS011;27206;47.032;15.484;2023-02-11T09:05:42;7.85;;;3.70;;
41468;SDS011;27206;47.032;15.484;2023-02-11T09:08:08;7.95;;;4.13;;
41468;SDS011;27206;47.032;15.484;2023-02-11T09:10:34;6.15;;;3.05;;
41468;SDS011;27206;47.032;15.484;2023-02-11T09:13:00;7.07;;;3.50;;
41468;SDS011;27206;47.032;15.484;2023-02-11T09:15:26;6.65;;;3.55;;
41468;SDS011;27206;47.032;15.484;2023-02-11T09:17:52;8.73;;;3.95;;
41468;SDS011;27206;47.032;15.484;2023-02-11T09:20:17;5.88;;;3.47;;
41468;SDS011;27206;47.032;15.484;2023-02-11T09:22:43;10.75;;;4.03;;
41468;SDS011;27206;47.032;15.484;2023-02-11T09:25:09;7.15;;;4.18;;
41468;SDS011;27206;47.032;15.484;2023-02-11T09:27:35;10.48;;;4.13;;
41468;SDS011;27206;47.032;15.484;2023-02-11T09:30:00;9.50;;;4.03;;
41468;SDS011;27206;47.032;15.484;2023-02-11T09:32:26;7.60;;;3.17;;
41468;SDS011;27206;47.032;15.484;2023-02-11T09:34:52;10.35;;;4.75;;
41468;SDS011;27206;47.032;15.484;2023-02-11T09:37:17;11.95;;;5.43;;
41468;SDS011;27206;47.032;15.484;2023-02-11T09:39:43;23.13;;;8.30;;
41468;SDS011;27206;47.032;15.484;2023-02-11T09:45:02;10.23;;;4.30;;
41468;SDS011;27206;47.032;15.484;2023-02-11T09:47:31;9.38;;;3.60;;
41468;SDS011;27206;47.032;15.484;2023-02-11T09:50:03;10.05;;;4.40;;
41468;SDS011;27206;47.032;15.484;2023-02-11T09:55:19;13.15;;;5.15;;
41468;SDS011;27206;47.032;15.484;2023-02-11T09:57:48;9.00;;;4.57;;
41468;SDS011;27206;47.032;15.484;2023-02-11T10:00:16;13.63;;;4.05;;
41468;SDS011;27206;47.032;15.484;2023-02-11T10:11:06;10.02;;;3.58;;
41468;SDS011;27206;47.032;15.484;2023-02-11T10:13:47;9.82;;;4.47;;
41468;SDS011;27206;47.032;15.484;2023-02-11T10:16:28;7.90;;;4.60;;
41468;SDS011;27206;47.032;15.484;2023-02-11T10:24:29;9.82;;;4.30;;
41468;SDS011;27206;47.032;15.484;2023-02-11T10:26:56;8.85;;;4.82;;
41468;SDS011;27206;47.032;15.484;2023-02-11T10:29:35;9.60;;;5.65;;
41468;SDS011;27206;47.032;15.484;2023-02-11T10:32:09;6.13;;;3.60;;
41468;SDS011;27206;47.032;15.484;2023-02-11T10:34:55;6.38;;;3.60;;
41468;SDS011;27206;47.032;15.484;2023-02-11T10:37:25;8.57;;;3.85;;
41468;SDS011;27206;47.032;15.484;2023-02-11T10:39:51;8.95;;;4.30;;
41468;SDS011;27206;47.032;15.484;2023-02-11T10:42:17;7.50;;;3.85;;
41468;SDS011;27206;47.032;15.484;2023-02-11T10:44:48;8.88;;;3.53;;
41468;SDS011;27206;47.032;15.484;2023-02-11T10:47:26;6.38;;;4.15;;
41468;SDS011;27206;47.032;15.484;2023-02-11T10:49:53;4.55;;;3.00;;
41468;SDS011;27206;47.032;15.484;2023-02-11T10:52:20;6.45;;;3.78;;
41468;SDS011;27206;47.032;15.484;2023-02-11T10:54:55;9.80;;;3.83;;
41468;SDS011;27206;47.032;15.484;2023-02-11T10:57:21;9.77;;;4.07;;
41468;SDS011;27206;47.032;15.484;2023-02-11T10:59:50;7.60;;;4.38;;
41468;SDS011;27206;47.032;15.484;2023-02-11T11:02:24;9.02;;;3.55;;
41468;SDS011;27206;47.032;15.484;2023-02-11T11:04:58;6.55;;;3.55;;
41468;SDS011;27206;47.032;15.484;2023-02-11T11:07:28;5.88;;;3.33;;
41468;SDS011;27206;47.032;15.484;2023-02-11T11:10:05;7.53;;;3.80;;
41468;SDS011;27206;47.032;15.484;2023-02-11T11:12:49;6.35;;;3.78;;
41468;SDS011;27206;47.032;15.484;2023-02-11T11:15:27;7.90;;;3.28;;
41468;SDS011;27206;47.032;15.484;2023-02-11T11:18:14;8.32;;;4.50;;
41468;SDS011;27206;47.032;15.484;2023-02-11T11:20:43;7.28;;;3.78;;
41468;SDS011;27206;47.032;15.484;2023-02-11T11:23:20;10.00;;;3.65;;
41468;SDS011;27206;47.032;15.484;2023-02-11T11:26:05;7.68;;;3.80;;
41468;SDS011;27206;47.032;15.484;2023-02-11T11:31:12;7.13;;;3.85;;
41468;SDS011;27206;47.032;15.484;2023-02-11T11:33:40;9.50;;;3.75;;
41468;SDS011;27206;47.032;15.484;2023-02-11T11:36:09;5.78;;;3.47;;
41468;SDS011;27206;47.032;15.484;2023-02-11T11:38:42;5.13;;;3.22;;
41468;SDS011;27206;47.032;15.484;2023-02-11T11:41:20;7.05;;;3.85;;
41468;SDS011;27206;47.032;15.484;2023-02-11T11:46:51;6.28;;;3.42;;
41468;SDS011;27206;47.032;15.484;2023-02-11T11:52:36;6.18;;;3.33;;
41468;SDS011;27206;47.032;15.484;2023-02-11T11:55:08;6.60;;;3.33;;
41468;SDS011;27206;47.032;15.484;2023-02-11T11:57:37;6.85;;;3.38;;
41468;SDS011;27206;47.032;15.484;2023-02-11T12:00:03;9.25;;;3.80;;
41468;SDS011;27206;47.032;15.484;2023-02-11T12:07:59;7.78;;;3.78;;
41468;SDS011;27206;47.032;15.484;2023-02-11T12:21:47;6.32;;;3.55;;
41468;SDS011;27206;47.032;15.484;2023-02-11T12:34:58;8.43;;;4.15;;
41468;SDS011;27206;47.032;15.484;2023-02-11T12:51:15;5.53;;;4.18;;
41468;SDS011;27206;47.032;15.484;2023-02-11T13:01:57;7.50;;;4.65;;
41468;SDS011;27206;47.032;15.484;2023-02-11T13:04:30;7.47;;;4.40;;
41468;SDS011;27206;47.032;15.484;2023-02-11T13:07:04;20.60;;;8.23;;
41468;SDS011;27206;47.032;15.484;2023-02-11T13:09:42;9.05;;;4.95;;
41468;SDS011;27206;47.032;15.484;2023-02-11T13:12:14;5.03;;;4.20;;
41468;SDS011;27206;47.032;15.484;2023-02-11T13:15:01;5.25;;;3.70;;
41468;SDS011;27206;47.032;15.484;2023-02-11T13:17:44;4.25;;;3.80;;
41468;SDS011;27206;47.032;15.484;2023-02-11T13:20:27;4.47;;;3.33;;
41468;SDS011;27206;47.032;15.484;2023-02-11T13:23:07;5.32;;;4.10;;
41468;SDS011;27206;47.032;15.484;2023-02-11T13:28:19;3.88;;;3.30;;
41468;SDS011;27206;47.032;15.484;2023-02-11T13:30:50;5.35;;;3.45;;
41468;SDS011;27206;47.032;15.484;2023-02-11T13:33:33;4.65;;;3.70;;
41468;SDS011;27206;47.032;15.484;2023-02-11T13:38:26;7.30;;;5.50;;
41468;SDS011;27206;47.032;15.484;2023-02-11T13:43:42;5.57;;;3.72;;
41468;SDS011;27206;47.032;15.484;2023-02-11T13:46:09;3.90;;;3.50;;
41468;SDS011;27206;47.032;15.484;2023-02-11T13:48:37;5.72;;;4.18;;
41468;SDS011;27206;47.032;15.484;2023-02-11T13:51:12;4.68;;;3.42;;
41468;SDS011;27206;47.032;15.484;2023-02-11T13:59:02;5.45;;;4.22;;
41468;SDS011;27206;47.032;15.484;2023-02-11T14:08:06;5.97;;;4.25;;
41468;SDS011;27206;47.032;15.484;2023-02-11T14:23:40;5.32;;;4.18;;
41468;SDS011;27206;47.032;15.484;2023-02-11T14:26:20;6.18;;;4.07;;
41468;SDS011;27206;47.032;15.484;2023-02-11T14:29:16;11.60;;;4.10;;
41468;SDS011;27206;47.032;15.484;2023-02-11T14:37:32;4.75;;;4.13;;
41468;SDS011;27206;47.032;15.484;2023-02-11T14:40:15;4.93;;;4.28;;
41468;SDS011;27206;47.032;15.484;2023-02-11T14:42:46;5.45;;;3.95;;
41468;SDS011;27206;47.032;15.484;2023-02-11T14:45:16;6.05;;;4.10;;
41468;SDS011;27206;47.032;15.484;2023-02-11T14:47:50;5.80;;;4.63;;
41468;SDS011;27206;47.032;15.484;2023-02-11T14:50:25;5.30;;;3.60;;
41468;SDS011;27206;47.032;15.484;2023-02-11T14:53:09;5.87;;;4.00;;
41468;SDS011;27206;47.032;15.484;2023-02-11T14:55:43;7.30;;;4.10;;
41468;SDS011;27206;47.032;15.484;2023-02-11T15:00:56;6.65;;;3.60;;
41468;SDS011;27206;47.032;15.484;2023-02-11T15:06:30;7.80;;;3.25;;
41468;SDS011;27206;47.032;15.484;2023-02-11T15:08:51;4.93;;;3.50;;
41468;SDS011;27206;47.032;15.484;2023-02-11T15:11:21;4.55;;;3.78;;
41468;SDS011;27206;47.032;15.484;2023-02-11T15:13:49;5.82;;;3.65;;
41468;SDS011;27206;47.032;15.484;2023-02-11T15:16:17;8.85;;;4.28;;
41468;SDS011;27206;47.032;15.484;2023-02-11T15:18:47;8.95;;;4.10;;
41468;SDS011;27206;47.032;15.484;2023-02-11T15:21:36;6.80;;;3.83;;
41468;SDS011;27206;47.032;15.484;2023-02-11T15:26:30;3.90;;;2.95;;
41468;SDS011;27206;47.032;15.484;2023-02-11T15:28:56;7.25;;;3.33;;
41468;SDS011;27206;47.032;15.484;2023-02-11T15:31:23;4.22;;;3.17;;
41468;SDS011;27206;47.032;15.484;2023-02-11T15:33:50;5.10;;;2.90;;
41468;SDS011;27206;47.032;15.484;2023-02-11T15:36:17;4.65;;;3.05;;
41468;SDS011;27206;47.032;15.484;2023-02-11T15:38:44;4.15;;;3.08;;
41468;SDS011;27206;47.032;15.484;2023-02-11T15:43:59;5.03;;;3.13;;
41468;SDS011;27206;47.032;15.484;2023-02-11T15:46:25;5.18;;;2.60;;
41468;SDS011;27206;47.032;15.484;2023-02-11T15:49:00;4.50;;;3.03;;
41468;SDS011;27206;47.032;15.484;2023-02-11T15:51:27;3.13;;;2.17;;
41468;SDS011;27206;47.032;15.484;2023-02-11T15:54:00;7.00;;;3.00;;
41468;SDS011;27206;47.032;15.484;2023-02-11T15:56:28;7.05;;;3.97;;
41468;SDS011;27206;47.032;15.484;2023-02-11T15:59:07;8.20;;;3.75;;
41468;SDS011;27206;47.032;15.484;2023-02-11T16:01:46;5.88;;;3.28;;
41468;SDS011;27206;47.032;15.484;2023-02-11T16:04:17;7.07;;;3.55;;
41468;SDS011;27206;47.032;15.484;2023-02-11T16:06:45;6.35;;;3.65;;
41468;SDS011;27206;47.032;15.484;2023-02-11T16:19:29;8.70;;;4.30;;
41468;SDS011;27206;47.032;15.484;2023-02-11T16:21:57;7.03;;;4.43;;
41468;SDS011;27206;47.032;15.484;2023-02-11T16:24:27;10.07;;;4.13;;
41468;SDS011;27206;47.032;15.484;2023-02-11T16:26:56;6.95;;;3.90;;
41468;SDS011;27206;47.032;15.484;2023-02-11T16:29:31;8.60;;;4.43;;
41468;SDS011;27206;47.032;15.484;2023-02-11T16:32:15;6.47;;;3.45;;
41468;SDS011;27206;47.032;15.484;2023-02-11T16:34:42;8.27;;;4.15;;
41468;SDS011;27206;47.032;15.484;2023-02-11T16:37:08;7.35;;;3.92;;
41468;SDS011;27206;47.032;15.484;2023-02-11T16:39:34;6.93;;;3.70;;
41468;SDS011;27206;47.032;15.484;2023-02-11T16:41:59;7.35;;;4.28;;
41468;SDS011;27206;47.032;15.484;2023-02-11T16:44:26;7.22;;;3.78;;
41468;SDS011;27206;47.032;15.484;2023-02-11T16:46:52;6.80;;;4.13;;
41468;SDS011;27206;47.032;15.484;2023-02-11T16:51:49;6.53;;;3.67;;
41468;SDS011;27206;47.032;15.484;2023-02-11T16:54:17;6.28;;;3.40;;
41468;SDS011;27206;47.032;15.484;2023-02-11T16:56:43;9.57;;;4.30;;
41468;SDS011;27206;47.032;15.484;2023-02-11T16:59:09;7.47;;;4.07;;
41468;SDS011;27206;47.032;15.484;2023-02-11T17:01:35;7.18;;;3.78;;
41468;SDS011;27206;47.032;15.484;2023-02-11T17:04:02;8.60;;;4.18;;
41468;SDS011;27206;47.032;15.484;2023-02-11T17:06:29;9.35;;;4.13;;
41468;SDS011;27206;47.032;15.484;2023-02-11T17:08:55;6.15;;;3.65;;
41468;SDS011;27206;47.032;15.484;2023-02-11T17:11:20;6.75;;;3.42;;
41468;SDS011;27206;47.032;15.484;2023-02-11T17:13:46;7.43;;;3.53;;
41468;SDS011;27206;47.032;15.484;2023-02-11T17:16:14;8.80;;;4.03;;
41468;SDS011;27206;47.032;15.484;2023-02-11T17:18:42;8.63;;;4.07;;
41468;SDS011;27206;47.032;15.484;2023-02-11T17:21:07;6.10;;;3.72;;
41468;SDS011;27206;47.032;15.484;2023-02-11T17:23:33;7.25;;;3.90;;
41468;SDS011;27206;47.032;15.484;2023-02-11T17:25:59;11.80;;;3.85;;
41468;SDS011;27206;47.032;15.484;2023-02-11T17:28:24;8.45;;;4.35;;
41468;SDS011;27206;47.032;15.484;2023-02-11T17:30:50;8.80;;;3.83;;
41468;SDS011;27206;47.032;15.484;2023-02-11T17:33:16;7.80;;;4.13;;
41468;SDS011;27206;47.032;15.484;2023-02-11T17:35:43;7.03;;;3.55;;
41468;SDS011;27206;47.032;15.484;2023-02-11T17:38:09;7.30;;;3.55;;
41468;SDS011;27206;47.032;15.484;2023-02-11T17:40:34;8.32;;;3.65;;
41468;SDS011;27206;47.032;15.484;2023-02-11T17:43:00;5.85;;;3.17;;